createdAt,value
2019-01-19T00:01:46.149Z,-4.00
2019-01-19T00:04:35.660Z,-4.60
2019-01-19T00:07:28.054Z,-4.60
2019-01-19T00:10:08.313Z,-4.60
2019-01-19T00:13:06.527Z,-4.70
2019-01-19T00:15:40.646Z,-4.70
2019-01-19T00:18:18.014Z,-4.60
2019-01-19T00:21:04.017Z,-4.80
2019-01-19T00:23:56.160Z,-4.70
2019-01-19T00:26:36.459Z,-4.00
2019-01-19T00:29:07.992Z,-5.10
2019-01-19T00:31:42.476Z,-4.10
2019-01-19T00:34:22.792Z,-4.70
2019-01-19T00:37:00.283Z,-4.50
2019-01-19T00:39:51.028Z,-4.60
2019-01-19T00:42:22.657Z,-4.30
2019-01-19T00:44:56.587Z,-4.40
2019-01-19T00:50:24.934Z,-4.40
2019-01-19T00:52:59.432Z,-4.30
2019-01-19T00:55:36.818Z,-4.30
2019-01-19T00:58:11.035Z,-4.30
2019-01-19T01:01:00.322Z,-4.40
2019-01-19T01:03:40.606Z,-4.40
2019-01-19T01:06:17.806Z,-4.30
2019-01-19T01:08:52.112Z,-4.20
2019-01-19T01:11:23.682Z,-4.30
2019-01-19T01:13:57.995Z,-3.80
2019-01-19T01:16:38.378Z,-4.40
2019-01-19T01:19:09.936Z,-4.40
2019-01-19T01:21:59.172Z,-4.20
2019-01-19T01:24:33.305Z,-4.30
2019-01-19T01:27:07.478Z,-4.10
2019-01-19T01:29:53.940Z,-4.20
2019-01-19T01:32:37.114Z,-4.20
2019-01-19T01:35:25.101Z,-4.10
2019-01-19T01:38:08.261Z,-4.10
2019-01-19T01:41:12.553Z,-4.00
2019-01-19T01:43:53.193Z,-4.10
2019-01-19T01:46:41.147Z,-4.10
2019-01-19T01:49:12.713Z,-3.50
2019-01-19T01:51:56.207Z,-4.20
2019-01-19T01:54:39.347Z,-4.20
2019-01-19T01:57:10.543Z,-4.20
2019-01-19T01:59:47.757Z,-4.20
2019-01-19T02:02:40.293Z,-4.20
2019-01-19T02:05:40.440Z,-4.20
2019-01-19T02:08:16.099Z,-4.20
2019-01-19T02:11:05.505Z,-4.20
2019-01-19T02:13:39.757Z,-4.20
2019-01-19T02:16:27.389Z,-4.30
2019-01-19T02:19:14.933Z,-4.30
2019-01-19T02:21:51.979Z,-4.30
2019-01-19T02:24:38.568Z,-4.20
2019-01-19T02:27:18.820Z,-4.30
2019-01-19T02:29:52.797Z,-4.30
2019-01-19T02:32:52.503Z,-4.20
2019-01-19T02:35:32.885Z,-4.20
2019-01-19T02:38:04.411Z,-4.20
2019-01-19T02:40:38.970Z,-4.10
2019-01-19T02:43:22.205Z,-4.10
2019-01-19T02:45:53.821Z,-4.00
2019-01-19T02:48:25.351Z,-4.00
2019-01-19T02:50:56.925Z,-4.00
2019-01-19T02:53:49.309Z,-3.90
2019-01-19T02:56:23.800Z,-3.90
2019-01-19T02:59:07.397Z,-3.90
2019-01-19T03:01:50.900Z,-3.90
2019-01-19T03:04:40.368Z,-3.80
2019-01-19T03:07:20.586Z,-3.80
2019-01-19T03:09:54.951Z,-3.80
2019-01-19T03:12:47.319Z,-3.70
2019-01-19T03:15:36.766Z,-3.70
2019-01-19T03:18:20.238Z,-3.70
2019-01-19T03:21:12.780Z,-3.60
2019-01-19T03:24:03.563Z,-3.60
2019-01-19T03:26:40.800Z,-3.60
2019-01-19T03:29:24.472Z,-3.60
2019-01-19T03:31:55.997Z,-3.70
2019-01-19T03:34:30.360Z,-3.70
2019-01-19T03:37:13.456Z,-3.70
2019-01-19T03:40:01.178Z,-3.70
2019-01-19T03:42:55.066Z,-3.70
2019-01-19T03:45:29.202Z,-3.70
2019-01-19T03:48:00.762Z,-3.70
2019-01-19T03:50:38.340Z,-3.80
2019-01-19T03:53:21.964Z,-3.80
2019-01-19T03:56:11.176Z,-3.70
2019-01-19T03:58:57.570Z,-3.80
2019-01-19T04:01:57.429Z,-3.80
2019-01-19T04:04:37.720Z,-3.80
2019-01-19T04:07:18.150Z,-3.80
2019-01-19T04:10:01.367Z,-3.90
2019-01-19T04:12:32.929Z,-3.90
2019-01-19T04:15:25.141Z,-4.00
2019-01-19T04:17:56.700Z,-4.00
2019-01-19T04:20:47.491Z,-4.10
2019-01-19T04:23:15.974Z,-4.20
2019-01-19T04:25:47.574Z,-4.20
2019-01-19T04:28:16.317Z,-4.20
2019-01-19T04:30:44.775Z,-4.30
2019-01-19T04:33:13.245Z,-4.20
2019-01-19T04:35:41.738Z,-4.30
2019-01-19T04:38:10.188Z,-4.30
2019-01-19T04:40:38.628Z,-4.30
2019-01-19T04:43:07.127Z,-4.40
2019-01-19T04:45:35.660Z,-4.40
2019-01-19T04:48:04.607Z,-4.50
2019-01-19T04:50:33.069Z,-4.50
2019-01-19T04:53:01.579Z,-4.50
2019-01-19T04:55:30.029Z,-4.50
2019-01-19T04:57:58.489Z,-4.60
2019-01-19T05:00:27.067Z,-4.50
2019-01-19T05:02:55.616Z,-4.50
2019-01-19T05:05:24.105Z,-4.60
2019-01-19T05:07:52.571Z,-4.60
2019-01-19T05:10:21.056Z,-4.60
2019-01-19T05:12:49.522Z,-4.60
2019-01-19T05:15:18.953Z,-4.60
2019-01-19T05:17:47.580Z,-4.60
2019-01-19T05:20:16.465Z,-4.60
2019-01-19T05:22:45.036Z,-4.60
2019-01-19T05:25:13.717Z,-4.60
2019-01-19T05:27:42.201Z,-4.60
2019-01-19T05:30:13.702Z,-4.50
2019-01-19T05:32:42.192Z,-4.50
2019-01-19T05:35:10.729Z,-4.50
2019-01-19T05:37:39.209Z,-4.50
2019-01-19T05:40:12.227Z,-4.60
2019-01-19T05:42:40.691Z,-4.70
2019-01-19T05:45:12.179Z,-4.70
2019-01-19T05:47:40.713Z,-4.70
2019-01-19T05:50:14.871Z,-4.70
2019-01-19T05:52:43.421Z,-4.70
2019-01-19T05:55:11.960Z,-4.80
2019-01-19T05:57:40.413Z,-4.80
2019-01-19T06:00:14.908Z,-4.90
2019-01-19T06:02:43.467Z,-4.90
2019-01-19T06:05:12.063Z,-4.80
2019-01-19T06:07:41.805Z,-4.80
2019-01-19T06:10:15.691Z,-4.80
2019-01-19T06:12:44.320Z,-4.80
2019-01-19T06:15:16.223Z,-4.80
2019-01-19T06:17:44.751Z,-4.80
2019-01-19T06:20:15.655Z,-4.80
2019-01-19T06:22:44.170Z,-4.70
2019-01-19T06:25:14.601Z,-4.70
2019-01-19T06:27:43.204Z,-4.80
2019-01-19T06:30:15.200Z,-4.80
2019-01-19T06:32:43.655Z,-4.90
2019-01-19T06:35:12.308Z,-4.90
2019-01-19T06:37:40.759Z,-4.90
2019-01-19T06:40:12.057Z,-4.90
2019-01-19T06:42:40.621Z,-4.80
2019-01-19T06:45:14.658Z,-4.90
2019-01-19T06:47:43.148Z,-5.00
2019-01-19T06:50:16.575Z,-5.10
2019-01-19T06:52:45.169Z,-5.10
2019-01-19T06:55:19.458Z,-5.00
2019-01-19T06:57:48.042Z,-5.10
2019-01-19T07:00:18.118Z,-5.10
2019-01-19T07:02:46.574Z,-5.20
2019-01-19T07:05:15.204Z,-5.20
2019-01-19T07:07:43.810Z,-5.20
2019-01-19T07:10:21.044Z,-5.20
2019-01-19T07:12:49.491Z,-5.20
2019-01-19T07:15:18.013Z,-5.20
2019-01-19T07:17:46.504Z,-5.20
2019-01-19T07:20:17.676Z,-5.20
2019-01-19T07:22:46.193Z,-5.20
2019-01-19T07:25:14.676Z,-5.20
2019-01-19T07:27:43.161Z,-5.20
2019-01-19T07:30:16.386Z,-5.20
2019-01-19T07:32:45.734Z,-5.20
2019-01-19T07:35:14.974Z,-5.20
2019-01-19T07:37:43.586Z,-5.20
2019-01-19T07:40:14.421Z,-5.20
2019-01-19T07:42:43.959Z,-5.20
2019-01-19T07:45:14.587Z,-5.20
2019-01-19T07:47:43.484Z,-5.20
2019-01-19T07:50:14.794Z,-5.20
2019-01-19T07:52:43.386Z,-5.10
2019-01-19T07:55:14.298Z,-5.10
2019-01-19T07:57:42.758Z,-5.10
2019-01-19T08:00:21.783Z,-5.10
2019-01-19T08:02:50.710Z,-5.00
2019-01-19T08:05:19.264Z,-5.00
2019-01-19T08:07:47.767Z,-4.90
2019-01-19T08:10:18.106Z,-4.80
2019-01-19T08:12:46.880Z,-4.70
2019-01-19T08:15:18.056Z,-4.60
2019-01-19T08:17:46.683Z,-4.50
2019-01-19T08:20:15.474Z,-4.40
2019-01-19T08:22:43.981Z,-4.20
2019-01-19T08:25:13.285Z,-4.00
2019-01-19T08:27:41.824Z,-3.70
2019-01-19T08:30:21.738Z,-3.40
2019-01-19T08:32:50.314Z,-3.30
2019-01-19T08:35:19.011Z,-3.20
2019-01-19T08:37:48.302Z,-2.80
2019-01-19T08:40:22.575Z,-2.70
2019-01-19T08:43:10.442Z,-2.50
2019-01-19T08:45:39.058Z,-2.20
2019-01-19T08:48:07.713Z,-2.10
2019-01-19T08:50:36.200Z,-1.90
2019-01-19T08:53:04.803Z,-1.80
2019-01-19T08:55:33.295Z,-2.00
2019-01-19T08:58:01.871Z,-2.20
2019-01-19T09:00:30.420Z,-2.40
2019-01-19T09:02:58.967Z,-2.60
2019-01-19T09:05:27.441Z,-2.70
2019-01-19T09:07:56.152Z,-2.70
2019-01-19T09:10:24.722Z,-2.80
2019-01-19T09:12:54.595Z,-2.80
2019-01-19T09:15:24.535Z,-2.80
2019-01-19T09:17:53.169Z,-2.80
2019-01-19T09:20:21.929Z,-2.80
2019-01-19T09:22:52.059Z,-2.70
2019-01-19T09:25:20.515Z,-2.70
2019-01-19T09:27:49.003Z,-2.60
2019-01-19T09:30:22.047Z,-2.60
2019-01-19T09:32:50.800Z,-2.60
2019-01-19T09:35:19.595Z,-2.40
2019-01-19T09:37:48.223Z,-2.50
2019-01-19T09:40:17.864Z,-2.30
2019-01-19T09:42:46.777Z,-2.20
2019-01-19T09:45:17.856Z,-2.10
2019-01-19T09:47:46.452Z,-2.10
2019-01-19T09:50:16.484Z,-2.10
2019-01-19T09:52:45.283Z,-2.10
2019-01-19T09:55:14.116Z,-2.20
2019-01-19T09:57:42.807Z,-2.20
2019-01-19T10:00:25.329Z,-2.10
2019-01-19T10:02:53.905Z,-2.10
2019-01-19T10:05:24.543Z,-2.00
2019-01-19T10:07:53.028Z,-2.10
2019-01-19T10:10:21.639Z,-2.20
2019-01-19T10:12:50.355Z,-2.30
2019-01-19T10:15:22.310Z,-2.30
2019-01-19T10:17:50.778Z,-2.40
2019-01-19T10:20:28.122Z,-2.40
2019-01-19T10:22:56.810Z,-2.40
2019-01-19T10:25:25.554Z,-2.30
2019-01-19T10:27:54.505Z,-2.30
2019-01-19T10:30:27.806Z,-2.30
2019-01-19T10:32:56.408Z,-2.20
2019-01-19T10:35:25.083Z,-2.00
2019-01-19T10:37:56.562Z,-1.90
2019-01-19T10:40:24.057Z,-1.80
2019-01-19T10:42:52.612Z,-1.80
2019-01-19T10:45:30.169Z,-1.70
2019-01-19T10:47:58.798Z,-1.70
2019-01-19T10:50:27.472Z,-1.60
2019-01-19T10:52:56.138Z,-1.60
2019-01-19T10:55:25.208Z,-1.60
2019-01-19T10:57:53.912Z,-1.50
2019-01-19T11:00:33.826Z,-1.30
2019-01-19T11:03:02.540Z,-1.20
2019-01-19T11:05:31.688Z,-1.10
2019-01-19T11:08:03.885Z,-1.00
2019-01-19T11:10:32.426Z,-1.10
2019-01-19T11:13:01.060Z,-1.10
2019-01-19T11:15:29.572Z,-1.00
2019-01-19T11:17:58.134Z,-1.00
2019-01-19T11:20:31.112Z,1.10
2019-01-19T11:23:01.307Z,-0.80
2019-01-19T11:25:30.513Z,-0.80
2019-01-19T11:27:59.202Z,-0.80
2019-01-19T11:30:32.515Z,-0.90
2019-01-19T11:33:01.170Z,-0.90
2019-01-19T11:35:30.260Z,-0.90
2019-01-19T11:37:59.175Z,-0.90
2019-01-19T11:40:30.535Z,-0.90
2019-01-19T11:42:58.980Z,-0.80
2019-01-19T11:45:27.522Z,-0.80
2019-01-19T11:47:56.096Z,-0.80
2019-01-19T11:50:24.613Z,-0.90
2019-01-19T11:52:53.152Z,-0.80
2019-01-19T11:55:21.800Z,-0.80
2019-01-19T11:57:56.227Z,-0.60
2019-01-19T12:00:30.222Z,-0.50
2019-01-19T12:02:59.021Z,-0.40
2019-01-19T12:05:27.721Z,-0.20
2019-01-19T12:07:56.366Z,-0.20
2019-01-19T12:10:29.588Z,-0.30
2019-01-19T12:12:59.107Z,-0.30
2019-01-19T12:15:27.926Z,-0.30
2019-01-19T12:17:56.615Z,-0.20
2019-01-19T12:20:28.247Z,-0.20
2019-01-19T12:22:56.784Z,-0.20
2019-01-19T12:25:25.910Z,-0.10
2019-01-19T12:27:55.707Z,0.00
2019-01-19T12:30:34.806Z,0.00
2019-01-19T12:33:03.409Z,0.00
2019-01-19T12:35:31.893Z,0.00
2019-01-19T12:38:01.246Z,0.00
2019-01-19T12:40:30.495Z,0.10
2019-01-19T12:43:11.028Z,0.30
2019-01-19T12:45:42.476Z,0.50
2019-01-19T12:48:11.904Z,0.70
2019-01-19T12:50:40.609Z,0.80
2019-01-19T12:53:09.801Z,0.90
2019-01-19T12:55:38.857Z,1.40
2019-01-19T12:58:08.511Z,1.70
2019-01-19T13:00:37.145Z,1.90
2019-01-19T13:03:06.803Z,2.20
2019-01-19T13:05:41.119Z,2.10
2019-01-19T13:08:13.085Z,1.80
2019-01-19T13:10:47.237Z,2.00
2019-01-19T13:13:15.940Z,2.10
2019-01-19T13:15:50.171Z,2.20
2019-01-19T13:18:42.673Z,2.20
2019-01-19T13:21:45.815Z,2.00
2019-01-19T13:24:45.919Z,2.10
2019-01-19T13:27:26.248Z,2.10
2019-01-19T13:30:17.049Z,1.90
2019-01-19T13:32:54.705Z,1.90
2019-01-19T13:35:47.078Z,1.70
2019-01-19T13:38:33.192Z,1.50
2019-01-19T13:41:07.488Z,1.30
2019-01-19T13:43:58.539Z,1.30
2019-01-19T13:46:41.973Z,1.40
2019-01-19T13:49:22.279Z,1.40
2019-01-19T13:51:53.872Z,1.20
2019-01-19T13:54:25.460Z,0.90
2019-01-19T13:57:16.570Z,0.90
2019-01-19T14:00:02.736Z,0.40
2019-01-19T14:02:46.036Z,0.30
2019-01-19T14:05:29.610Z,0.20
2019-01-19T14:08:09.966Z,0.20
2019-01-19T14:11:01.047Z,0.40
2019-01-19T14:14:01.111Z,0.20
2019-01-19T14:16:48.946Z,0.20
2019-01-19T14:19:26.268Z,0.30
2019-01-19T14:22:06.180Z,0.30
2019-01-19T14:24:55.834Z,0.20
2019-01-19T14:27:27.416Z,0.10
2019-01-19T14:30:20.374Z,-0.10
2019-01-19T14:32:57.731Z,-0.10
2019-01-19T14:35:37.976Z,-0.30
2019-01-19T14:38:24.600Z,-0.30
2019-01-19T14:41:05.196Z,-0.30
2019-01-19T14:43:59.284Z,-0.40
2019-01-19T14:46:36.585Z,-0.40
2019-01-19T14:49:26.110Z,-0.50
2019-01-19T14:52:00.426Z,-0.60
2019-01-19T14:54:45.626Z,-0.60
2019-01-19T14:57:35.370Z,-0.60
2019-01-19T15:00:27.957Z,-0.80
2019-01-19T15:03:05.333Z,-1.00
2019-01-19T15:05:48.732Z,-1.10
2019-01-19T15:08:23.056Z,-1.30
2019-01-19T15:11:09.647Z,-1.40
2019-01-19T15:14:06.682Z,-1.40
2019-01-19T15:16:47.844Z,-1.40
2019-01-19T15:19:25.297Z,-1.50
2019-01-19T15:22:00.108Z,-1.60
2019-01-19T15:24:37.459Z,-1.60
2019-01-19T15:27:11.633Z,-1.70
2019-01-19T15:30:09.468Z,-1.70
2019-01-19T15:32:49.736Z,-1.70
2019-01-19T15:35:40.648Z,-1.80
2019-01-19T15:38:18.204Z,-1.90
2019-01-19T15:41:09.414Z,-2.00
2019-01-19T15:43:42.320Z,-2.10
2019-01-19T15:46:40.921Z,-1.40
2019-01-19T15:49:18.104Z,-2.00
2019-01-19T15:52:07.701Z,-2.20
2019-01-19T15:54:50.441Z,-2.20
2019-01-19T15:57:30.631Z,-2.20
2019-01-19T16:00:18.794Z,-2.40
2019-01-19T16:03:07.858Z,-2.30
2019-01-19T16:05:55.916Z,-2.70
2019-01-19T16:08:37.836Z,-1.90
2019-01-19T16:11:18.198Z,-2.60
2019-01-19T16:13:56.787Z,-2.50
2019-01-19T16:19:12.799Z,-2.70
2019-01-19T16:22:14.603Z,-2.60
2019-01-19T16:27:40.393Z,-3.00
2019-01-19T16:32:58.679Z,-2.70
2019-01-19T16:38:17.676Z,-2.80
2019-01-19T16:41:01.309Z,-3.00
2019-01-19T16:43:38.197Z,-3.00
2019-01-19T16:49:00.440Z,-3.20
2019-01-19T16:51:44.133Z,-3.10
2019-01-19T16:54:16.893Z,-3.20
2019-01-19T16:56:48.560Z,-3.20
2019-01-19T17:01:58.797Z,-3.40
2019-01-19T17:04:49.953Z,-3.20
2019-01-19T17:07:56.210Z,-3.40
2019-01-19T17:10:39.708Z,-3.50
2019-01-19T17:13:38.510Z,-3.40
2019-01-19T17:16:21.937Z,-3.50
2019-01-19T17:19:08.202Z,-3.70
2019-01-19T17:24:41.452Z,-3.60
2019-01-19T17:27:18.936Z,-3.50
2019-01-19T17:30:02.612Z,-3.40
2019-01-19T17:32:40.752Z,-3.60
2019-01-19T17:37:57.047Z,-3.50
2019-01-19T17:40:38.819Z,-3.40
2019-01-19T17:46:01.836Z,-3.30
2019-01-19T17:48:43.301Z,-3.60
2019-01-19T17:51:31.390Z,-3.50
2019-01-19T17:59:36.449Z,-3.40
2019-01-19T18:02:19.759Z,-3.50
2019-01-19T18:10:01.133Z,-3.50
2019-01-19T18:12:32.730Z,-3.50
2019-01-19T18:18:07.944Z,-3.50
2019-01-19T18:20:51.452Z,-3.50
2019-01-19T18:23:24.960Z,-3.40
2019-01-19T18:31:08.408Z,-3.60
2019-01-19T18:33:46.825Z,-4.00
2019-01-19T18:36:21.643Z,-3.70
2019-01-19T18:39:12.004Z,-3.80
2019-01-19T18:42:04.247Z,-3.90
2019-01-19T18:44:44.836Z,-4.00
2019-01-19T18:47:31.135Z,-3.90
2019-01-19T18:50:29.845Z,-3.80
2019-01-19T18:53:13.409Z,-3.70
2019-01-19T18:58:30.567Z,-4.20
2019-01-19T19:01:20.768Z,-4.10
2019-01-19T19:06:36.228Z,-4.50
2019-01-19T19:09:24.364Z,-4.20
2019-01-19T19:12:18.636Z,-4.40
2019-01-19T19:17:27.405Z,-4.10
2019-01-19T19:22:46.515Z,-4.30
2019-01-19T19:28:11.335Z,-4.60
2019-01-19T19:31:01.491Z,-4.50
2019-01-19T19:33:37.439Z,-4.40
2019-01-19T19:36:33.073Z,-4.40
2019-01-19T19:39:20.821Z,-4.60
2019-01-19T19:42:15.066Z,-4.90
2019-01-19T19:45:04.283Z,-4.50
2019-01-19T19:47:50.544Z,-4.40
2019-01-19T19:50:45.918Z,-4.60
2019-01-19T19:53:14.755Z,-4.60
2019-01-19T19:55:42.519Z,-4.70
2019-01-19T19:58:15.155Z,-4.80
2019-01-19T20:00:43.808Z,-5.00
2019-01-19T20:05:42.235Z,-4.90
2019-01-19T20:08:10.788Z,-4.90
2019-01-19T20:10:42.671Z,-5.00
2019-01-19T20:13:11.271Z,-5.00
2019-01-19T20:15:40.879Z,-5.00
2019-01-19T20:18:11.105Z,-5.00
2019-01-19T20:20:41.333Z,-5.00
2019-01-19T20:23:09.944Z,-4.90
2019-01-19T20:25:38.833Z,-5.00
2019-01-19T20:28:07.674Z,-5.00
2019-01-19T20:33:05.196Z,-4.80
2019-01-19T20:35:34.860Z,-4.90
2019-01-19T20:38:04.189Z,-5.00
2019-01-19T20:40:32.869Z,-4.70
2019-01-19T20:43:02.032Z,-4.70
2019-01-19T20:45:32.312Z,-4.90
2019-01-19T20:48:01.980Z,-4.70
2019-01-19T20:53:03.181Z,-4.80
2019-01-19T20:55:32.750Z,-4.50
2019-01-19T20:58:02.842Z,-4.50
2019-01-19T21:00:32.232Z,-4.40
2019-01-19T21:03:11.285Z,-4.30
2019-01-19T21:05:39.884Z,-4.60
2019-01-19T21:10:37.566Z,-4.60
2019-01-19T21:13:07.299Z,-4.60
2019-01-19T21:15:38.948Z,-4.30
2019-01-19T21:18:09.974Z,-4.90
2019-01-19T21:23:08.077Z,-5.00
2019-01-19T21:25:39.246Z,-5.20
2019-01-19T21:28:09.575Z,-5.00
2019-01-19T21:30:38.590Z,-5.30
2019-01-19T21:33:08.883Z,-5.30
2019-01-19T21:35:38.557Z,-5.30
2019-01-19T21:38:09.312Z,-5.30
2019-01-19T21:40:39.103Z,-5.40
2019-01-19T21:43:08.268Z,-5.50
2019-01-19T21:45:41.965Z,-5.50
2019-01-19T21:50:39.233Z,-5.70
2019-01-19T21:53:07.856Z,-5.60
2019-01-19T21:55:36.467Z,-5.50
2019-01-19T21:58:06.246Z,-5.50
2019-01-19T22:00:37.642Z,-5.60
2019-01-19T22:03:09.113Z,-5.80
2019-01-19T22:08:07.106Z,-5.80
2019-01-19T22:15:35.859Z,-5.70
2019-01-19T22:18:04.564Z,-5.80
2019-01-19T22:23:05.634Z,-5.40
2019-01-19T22:25:35.760Z,-5.60
2019-01-19T22:28:05.836Z,-5.50
2019-01-19T22:30:36.040Z,-5.60
2019-01-19T22:33:05.444Z,-5.50
2019-01-19T22:38:04.125Z,-5.90
2019-01-19T22:43:02.870Z,-5.70
2019-01-19T22:45:33.037Z,-5.70
2019-01-19T22:50:29.948Z,-5.90
2019-01-19T22:53:01.345Z,-5.90
2019-01-19T22:55:31.286Z,-5.80
2019-01-19T22:58:01.005Z,-5.80
2019-01-19T23:01:00.452Z,-6.10
2019-01-19T23:03:31.825Z,-5.90
2019-01-19T23:06:00.411Z,-5.90
2019-01-19T23:08:29.597Z,-5.70
2019-01-19T23:13:29.847Z,-5.90
2019-01-19T23:15:59.979Z,-5.90
2019-01-19T23:18:29.807Z,-5.90
2019-01-19T23:20:59.923Z,-6.10
2019-01-19T23:23:28.564Z,-5.90
2019-01-19T23:26:00.322Z,-6.00
2019-01-19T23:28:30.753Z,-6.00
2019-01-19T23:31:01.525Z,-6.00
2019-01-19T23:33:31.653Z,-5.90
2019-01-19T23:36:02.303Z,-6.00
2019-01-19T23:38:32.505Z,-6.30
2019-01-19T23:43:34.270Z,-5.90
2019-01-19T23:46:03.298Z,-6.00
2019-01-19T23:53:30.748Z,-6.30
2019-01-19T23:55:59.873Z,-6.20
